Home Music Articles Forums Blog Chat More...      
preference
(Joseph Lee Paige)


Member Since: Thursday, April 02 2009 @ 11:26 PM CDT
Contact: send a note
Homepage: http://
Location: Seattle, Washington United States
Song Comments: 65
Song Votes: 1
Forum Posts: 5
Weekly Points: 20.00
Total Points: 1158.35
Bio:
I've been producing as long as I've been on mac jams. not really producing= - just throwing tracks together. I hope to one day learn how to truly 'master' a track, how to sample better, and how to make nice sounding synths. I JUST learned how to do decent bass lines after 3 years, so that gives you an idea of the pace. I currently go to University of Washington part time and work in telecom during the day. I make beats when i'm inspired - i can just force it.
preference's Songs (91)
Date Title Rating Hits Genre Last Comment Status
08.14.17 Burial Grounds 0.00 (0) 34 (0) Hip Hop-Rap N/A Active
08.14.17 Training 0.00 (0) 36 (0) Hip Hop-Rap N/A Active
04.23.17 Hard Drums 0.00 (0) 287 (1) Hip Hop-Rap 05.01.17 Active
04.12.17 Please Like This 0.00 (0) 272 (1) Hip Hop-Rap 04.14.17 Active
04.12.17 Simple Enough 0.00 (0) 190 (0) Hip Hop-Rap N/A Active
04.11.17 A Decent Hip Hop Track 0.00 (0) 210 (0) Hip Hop-Rap N/A Active
04.11.17 A risk not yet taken 0.00 (0) 192 (1) Trip Hop 04.12.17 Active
04.05.17 Sjmple 0.00 (0) 268 (0) Hip Hop-Rap N/A Active
03.14.17 The Return 0.00 (0) 213 (0) Hip Hop-Rap N/A Active
03.06.17 Good Start at Least 0.00 (0) 242 (1) Heavy Metal 03.07.17 Active
03.05.17 Simple Drums 2 0.00 (0) 257 (0) Hip Hop-Rap N/A Active
03.04.17 Grimey Synths 0.00 (0) 313 (4) Hip Hop-Rap 03.10.17 Active
09.01.16 Starry Nights 0.00 (0) 422 (0) Hip Hop-Rap N/A Active
09.01.16 Double Time 2 0.00 (0) 416 (0) Trip Hop N/A Active
08.30.16 hello there 0.00 (0) 349 (0) Trip Hop N/A Active
08.26.16 Random Stuff 0.00 (0) 391 (0) Trip Hop N/A Active
07.21.16 Not that good 0.00 (0) 381 (0) Hip Hop-Rap N/A Active
07.20.16 Crystalized v2 0.00 (0) 389 (1) Hip Hop-Rap 03.10.17 Active
07.17.16 A little too long 0.00 (0) 487 (2) Hip Hop-Rap 07.22.16 Active
07.16.16 Awful 2 0.00 (0) 345 (0) Hip Hop-Rap N/A Active
07.16.16 Good Drums 2 0.00 (0) 357 (0) Hip Hop-Rap N/A Active
07.16.16 Simple 0.00 (0) 426 (1) Hip Hop-Rap 07.28.16 Active
09.07.15 Listen to the album, Zaba. 0.00 (0) 599 (0) Trip Hop N/A Active
09.04.15 For fun 0.00 (0) 513 (0) Hip Hop-Rap N/A Active
04.26.15 Leave of Absence 0.00 (0) 739 (3) Hip Hop-Rap 08.14.15 Active
09.23.14 sorrow (down tempo) - v1.0 0.00 (0) 702 (1) Hip Hop-Rap 11.21.14 Active
06.14.14 Probably a bit too long 0.00 (0) 843 (2) Hip Hop-Rap 06.15.14 Active
03.02.14 Here's another one for you guys 0.00 (0) 651 (1) Hip Hop-Rap 03.02.14 Active
02.23.14 Resubmit - one I spent some time on 0.00 (0) 590 (2) Hip Hop-Rap 03.21.14 Active
02.23.14 Sorry, haven't been on in a while 0.00 (0) 505 (0) Hip Hop-Rap N/A Active
05.27.13 Danny Craig 0.00 (0) 964 (4) Hip Hop-Rap 06.02.13 Active
04.21.13 Joe Paige Returns to India 0.00 (0) 1147 (6) Hip Hop-Rap 04.27.13 Active
03.25.13 so lost 0.00 (0) 871 (8) Hip Hop-Rap 04.21.13 Active
01.27.13 time to waste 0.00 (0) 803 (7) Hip Hop-Rap 04.21.13 Active
04.04.12 another garbage song 0.00 (0) 1234 (6) Hip Hop-Rap 05.07.12 Active
03.10.12 just the instrumental of that last song 0.00 (0) 1110 (1) Hip Hop-Rap 04.16.13 Active
03.09.12 this one definitely better (with acapella) 0.00 (0) 1460 (3) Hip Hop-Rap 04.12.13 Active
03.05.12 please ignore 3, with acapella 0.00 (0) 821 (2) Hip Hop-Rap 03.09.12 Active
03.05.12 ignore again just a beat 0.00 (0) 900 (3) Hip Hop-Rap 04.16.13 Active
03.02.12 please ignore 0.00 (0) 1043 (6) Hip Hop-Rap 04.16.13 Active
02.26.12 i love wu tang - better 0.00 (0) 946 (3) Hip Hop-Rap 04.16.13 Active
02.04.12 First Song in a While - with okay acapella 0.00 (0) 947 (4) Hip Hop-Rap 03.03.12 Active
02.04.12 First Song in a While 0.00 (0) 1073 (1) Hip Hop-Rap 04.03.13 Active
03.06.11 terrible song 0.00 (0) 1862 (6) Hip Hop-Rap 03.19.11 Active
06.28.10 Distanced 0.00 (0) 1526 (6) Hip Hop-Rap 07.01.10 Active
06.16.10 So Good "freestyle stuff" 0.00 (0) 1243 (3) Hip Hop-Rap 04.12.13 Active
06.09.10 Hip Hop Apologetics 0.00 (0) 1523 (3) Hip Hop-Rap 06.10.10 Active
06.05.10 Oh Lord 0.00 (0) 1924 (2) Hip Hop-Rap 06.30.10 Active
06.02.10 Wayward Thoughts (back from rehab!) 8.50 (1) 1745 (9) Hip Hop-Rap 04.16.13 Active
02.25.10 For Fun [freestyle material] 9.00 (1) 1522 (2) Hip Hop-Rap 02.27.10 Active
12.26.09 Time For Us [Instrumental] 9.63 (2) 2116 (15) Hip Hop-Rap 01.03.10 Active
11.30.09 My first Dubstep 0.00 (0) 1815 (5) Downtempo 12.04.09 Active
11.17.09 Hands in my Pockets 9.00 (1) 2483 (11) Hip Hop-Rap 11.21.09 Active
11.06.09 My First Track with Ableton [Instrumental] 0.00 (0) 2237 (4) Hip Hop-Rap 11.10.09 Active
09.29.09 Me and You. 8.75 (1) 2023 (9) Hip Hop-Rap 10.23.09 Active
09.25.09 Sidewalk Slippin 5.50 (1) 2104 (3) Hip Hop-Rap 09.28.09 Active
09.23.09 Euphoria 0.00 (0) 1288 (2) Hip Hop-Rap 04.12.13 Active
09.23.09 Lucid Dreaming ft. Animal Nation [remix] 0.00 (0) 2057 (5) Hip Hop-Rap 09.23.09 Active
08.29.09 Summer Kids [remix] 7.75 (1) 1557 (2) Hip Hop-Rap 08.29.09 Active
08.15.09 konscious and prototype something 0.00 (0) 1573 (5) Hip Hop-Rap 08.21.09 Active
08.13.09 Unfinished song [seriously, not done, okay stuff for freestyle material] 9.00 (1) 1383 (1) Hip Hop-Rap 08.14.09 Active
08.10.09 Wu-Equality [Third World Remix] ft. GZA and RZA 0.00 (0) 2074 (4) Hip Hop-Rap 08.10.09 Active
08.08.09 Freedom remix [2nd try] ft spitlogic 0.00 (0) 2312 (5) Hip Hop-Rap 08.09.09 Active
08.08.09 Cult of Anubis [prototype mix] (nothing new, don't have to listen) 0.00 (0) 1619 (2) Hip Hop-Rap 08.09.09 Active
08.08.09 Broken Lyrics Remix [2nd try] ft. Spitlogic 0.00 (0) 2482 (3) Hip Hop-Rap 08.10.09 Active
08.06.09 Regret Remix [2nd Try] Featuring Spitlogic 0.00 (0) 2436 (7) Hip Hop-Rap 08.07.09 Active
07.19.09 Cult of Anubis remix [2nd try] 0.00 (0) 1855 (5) Hip Hop-Rap 07.28.09 Active
07.19.09 Withdrawal 0.00 (0) 2458 (8) Hip Hop-Rap 08.10.09 Active
07.03.09 Toothbrush 0.00 (0) 2364 (4) Hip Hop-Rap 07.14.09 Active
06.24.09 Broken remix ft spitlogic 0.00 (0) 2179 (4) Hip Hop-Rap 06.28.09 Active
06.18.09 4 Square 0.00 (0) 1747 (3) Hip Hop-Rap 07.14.09 Active
06.18.09 Prepared Piano 0.00 (0) 1765 (2) Hip Hop-Rap 07.19.09 Active
06.18.09 Underwater Dreaming 0.00 (0) 1693 (1) Hip Hop-Rap 06.19.09 Active
06.10.09 The Other Side 0.00 (0) 2193 (7) Hip Hop-Rap 04.12.13 Active
05.14.09 Containment 10.00 (1) 2389 (5) Hip Hop-Rap 05.18.09 Active
05.07.09 Fallout 0.00 (0) 2474 (7) Hip Hop-Rap 05.14.09 Active
05.06.09 Joe Paige 0.00 (0) 2552 (5) Trip Hop 04.12.13 Active
05.06.09 New Piano 0.00 (0) 1653 (2) Hip Hop-Rap 05.06.09 Active
04.16.09 I love Mr. Rogers 0.00 (0) 2658 (5) Hip Hop-Rap 04.18.09 Active
04.13.09 Freedom remix ft. spitlogic 0.00 (0) 2134 (6) Hip Hop-Rap 05.08.09 Active
04.11.09 Cult of Anubis remix [spitlogic is the best] 0.00 (0) 1792 (3) Hip Hop-Rap 03.03.12 Active
04.10.09 bach revived 0.00 (0) 1497 (1) Hip Hop-Rap 04.11.09 Active
04.10.09 My piano remix [ft raekwon, ghostface] 0.00 (0) 1584 (2) Hip Hop-Rap 04.12.13 Active
04.05.09 Vietnam 7.25 (1) 1909 (5) Hip Hop-Rap 01.12.12 Active
04.05.09 White Lion 0.00 (0) 2076 (1) Trance 07.28.09 Active
04.05.09 Feel good [instrumental] 0.00 (0) 1902 (3) Hip Hop-Rap 04.11.09 Active
04.05.09 Vocals [instrumental] 0.00 (0) 1573 (3) Hip Hop-Rap 04.18.09 Active
04.05.09 Love [Instrumental] 0.00 (0) 1774 (3) Hip Hop-Rap 04.05.09 Active
04.05.09 Piano [instrumental] 0.00 (0) 1785 (2) Hip Hop-Rap 08.11.09 Active
04.04.09 Regret Spit Logic remix by ME 0.00 (0) 1631 (2) Hip Hop-Rap 04.05.09 Active
04.04.09 Spit Logic NUMB remix 0.00 (0) 1733 (2) Hip Hop-Rap 04.05.09 Active
Favorite Songs (41)
Title Artist Date Genre
Long Day 2015 (w/awigze) rok41 02.14.15 Jazz (instrumental)
81 Transforming DJ WERD 05.25.14 Trip Hop
Despair flagg1337 02.23.14 Hard Rock
blue flew DJ WERD 04.06.13 Trip Hop
Masked PrototypeEightyOne 04.05.12 Hip Hop-Rap
Myopia Dub ( w/ sammydix ) michael2 04.05.12 Dub
A Painted Picture PrototypeEightyOne 03.13.12 Hip Hop-Rap
SIX-MINUTE-SONG TO GO (the contractman will wonder) doc_elvis 03.09.12 Rock
High School Crush Sir Bass 02.28.12 Alternative Rock
BIG CAR - NO SHOES PBGB 02.02.12 Rock
This King spitlogic 01.21.12 Hip Hop-Rap
A Different Link w/ Prototype81 PrototypeEightyOne 01.20.12 Hip Hop-Rap
rant3:45pm(Spitlogic,bud&awigze) davisamerica 06.04.11 Hip Hop-Rap
"Morpheous" bartsbeatz 05.11.11 Hip Hop-Rap
A Bird Without Wings cyrus0302 06.29.10 Hard Rock
Pathetic and Poetic abfkingsport 06.29.10 Rock
When Sumthinz Broken f/ B-Stilt axljfoley 05.27.10 Hip Hop-Rap
Jump off (with Nick Flash and modobeats) craft 05.27.10 Other
Jack Adam and Jill Eve Vaisvil 11.19.09 Acoustic Rock
Jack Adam and Jill Eve Vaisvil 11.19.09 Acoustic Rock
The Big Piano Vaisvil 11.19.09 Piano
Samurai Showdown PrototypeEightyOne 11.16.09 Hip Hop-Rap
Solar Blasphemics shavingronaldscar 09.23.09 Experimental
A Night With Feter feat'(Roxylee sloparts crissew johnwhitehead and Yamin AL Yamani ) Feter 09.03.09 Acoustic
Sense of Crisis Konscious 08.22.09 Hip Hop-Rap
Mental Preference Konscious 08.10.09 Hip Hop-Rap
Grampsta Rappa Clambake 06.23.09 Hip Hop-Rap
100 moons DJ WERD 06.22.09 Hip Hop-Rap
I DJ WERD 06.22.09 Hip Hop-Rap
Nasty Little Things [ramonaji/awigze mix] davisamerica 06.15.09 Trip Hop
Funkin' Hills Be Barkin' POWER-of-STYLE 06.15.09 Hip Hop-Rap
Hippie Traction Mesa shavingronaldscar 06.14.09 Hip Hop-Rap
Broken (a cappella) spitlogic 05.19.09 A Cappella
We Jamin' Macintosh DJ WERD 05.17.09 Hip Hop-Rap
Alcohol and Saturday Morning Cartoons shavingronaldscar 05.06.09 Jungle
What If? (Re-Mix) lavalamp 04.04.09 Ballad
Im sorry but thats dumb Dj French Toast 03.06.09 Hip Hop-Rap
Dual Tapestry (w/kassia) magnatone 02.17.09 Piano
Man-Blind (Spitlogic Remix) Nick_Flash 05.24.08 Hip Hop-Rap
wayfaring stranger/ by feter davisamerica 02.25.08 Folk-Rock
Tears of the Ghetto(Mc Boss Kennedy) Dj French Toast 07.30.07 Hip Hop-Rap
Favorite MacJammers (19)
Fans (20)
Music Background i play oboe, percussion piano, and have spent a little bit of time learning my theory and composition. started playing music at 6, and i'm 24 now, so its been a big part of my life. I have not really played any music for the last few years - i was in the orchestra at UW but gave up. went through a lot of issues those years - I've really picked my self up, and MAKING BEATS is part of what helps.
Music Skills SKILLS I AM AWFUL
Music Hardware laptop speakers and my 88 key yamaha that I can barely use with FL studio - UPDATE 2013 *** i have $40 headphones son WHAT
Music Software Ableton Live 8 Fruity Loops
Keywords hip hop, rap, trip hop